createdAt,value
2023-05-03T00:01:26.695Z,61.50
2023-05-03T00:03:56.510Z,61.14
2023-05-03T00:06:26.230Z,60.96
2023-05-03T00:08:55.064Z,61.46
2023-05-03T00:11:23.918Z,61.15
2023-05-03T00:13:53.113Z,61.07
2023-05-03T00:16:21.982Z,61.27
2023-05-03T00:18:57.106Z,61.72
2023-05-03T00:21:26.470Z,61.59
2023-05-03T00:23:55.871Z,61.68
2023-05-03T00:26:26.097Z,61.23
2023-05-03T00:28:54.936Z,61.59
2023-05-03T00:31:24.090Z,61.26
2023-05-03T00:33:54.974Z,61.52
2023-05-03T00:36:23.692Z,61.87
2023-05-03T00:38:52.886Z,61.36
2023-05-03T00:41:23.886Z,61.79
2023-05-03T00:43:53.124Z,61.75
2023-05-03T00:46:22.223Z,61.72
2023-05-03T00:48:56.528Z,61.53
2023-05-03T00:51:28.223Z,61.22
2023-05-03T00:53:57.568Z,61.32
2023-05-03T00:56:32.973Z,61.55
2023-05-03T00:59:08.209Z,61.62
2023-05-03T01:01:37.083Z,61.54
2023-05-03T01:04:07.626Z,61.41
2023-05-03T01:06:44.535Z,61.42
2023-05-03T01:09:18.464Z,61.50
2023-05-03T01:11:53.724Z,61.42
2023-05-03T01:14:32.790Z,61.58
2023-05-03T01:17:08.905Z,61.56
2023-05-03T01:19:44.277Z,61.82
2023-05-03T01:22:22.311Z,61.79
2023-05-03T01:25:00.094Z,61.36
2023-05-03T01:27:30.487Z,61.92
2023-05-03T01:29:59.431Z,62.36
2023-05-03T01:32:36.594Z,61.89
2023-05-03T01:35:15.908Z,62.29
2023-05-03T01:37:45.317Z,62.17
2023-05-03T01:40:16.336Z,62.10
2023-05-03T01:42:46.152Z,62.19
2023-05-03T01:45:17.760Z,61.99
2023-05-03T01:47:46.722Z,62.24
2023-05-03T01:50:16.809Z,62.03
2023-05-03T01:52:46.048Z,62.26
2023-05-03T01:55:18.340Z,61.83
2023-05-03T01:57:47.540Z,62.32
2023-05-03T02:00:16.774Z,62.29
2023-05-03T02:02:46.271Z,62.30
2023-05-03T02:05:15.437Z,62.35
2023-05-03T02:07:44.698Z,62.53
2023-05-03T02:10:14.610Z,62.84
2023-05-03T02:12:44.572Z,62.39
2023-05-03T02:15:13.946Z,62.91
2023-05-03T02:17:45.103Z,62.31
2023-05-03T02:20:14.092Z,62.58
2023-05-03T02:22:43.217Z,62.38
2023-05-03T02:25:12.166Z,62.55
2023-05-03T02:27:41.338Z,63.16
2023-05-03T02:30:11.772Z,62.40
2023-05-03T02:32:42.665Z,62.66
2023-05-03T02:35:12.507Z,62.54
2023-05-03T02:37:41.299Z,62.73
2023-05-03T02:40:12.834Z,62.23
2023-05-03T02:42:42.765Z,62.69
2023-05-03T02:45:12.610Z,62.69
2023-05-03T02:47:43.762Z,62.82
2023-05-03T02:50:13.553Z,62.85
2023-05-03T02:52:42.805Z,63.04
2023-05-03T02:55:12.208Z,62.87
2023-05-03T02:57:42.402Z,62.87
2023-05-03T03:00:15.251Z,63.41
2023-05-03T03:02:44.676Z,62.75
2023-05-03T03:05:14.224Z,62.84
2023-05-03T03:07:44.193Z,62.82
2023-05-03T03:10:12.913Z,62.75
2023-05-03T03:12:42.176Z,62.80
2023-05-03T03:15:13.210Z,62.72
2023-05-03T03:17:42.406Z,62.64
2023-05-03T03:20:12.417Z,62.78
2023-05-03T03:22:45.003Z,62.74
2023-05-03T03:25:15.485Z,62.74
2023-05-03T03:27:44.966Z,63.12
2023-05-03T03:30:15.347Z,62.86
2023-05-03T03:32:51.452Z,63.07
2023-05-03T03:35:22.652Z,63.08
2023-05-03T03:37:51.514Z,63.24
2023-05-03T03:40:22.363Z,63.32
2023-05-03T03:42:51.874Z,63.10
2023-05-03T03:45:20.967Z,63.13
2023-05-03T03:47:51.576Z,63.12
2023-05-03T03:50:24.443Z,63.06
2023-05-03T03:52:53.676Z,63.58
2023-05-03T03:55:23.814Z,63.32
2023-05-03T03:57:54.296Z,63.23
2023-05-03T04:00:25.399Z,63.37
2023-05-03T04:02:58.521Z,63.32
2023-05-03T04:05:28.372Z,63.19
2023-05-03T04:07:57.268Z,63.14
2023-05-03T04:10:27.631Z,63.09
2023-05-03T04:12:56.823Z,63.04
2023-05-03T04:15:26.494Z,63.25
2023-05-03T04:17:58.118Z,63.23
2023-05-03T04:20:28.502Z,63.00
2023-05-03T04:22:57.531Z,63.15
2023-05-03T04:25:31.640Z,63.14
2023-05-03T04:28:06.355Z,62.89
2023-05-03T04:30:36.103Z,63.03
2023-05-03T04:33:05.187Z,62.70
2023-05-03T04:35:35.990Z,62.75
2023-05-03T04:38:09.615Z,62.54
2023-05-03T04:40:38.544Z,62.05
2023-05-03T04:43:11.117Z,61.40
2023-05-03T04:45:42.722Z,60.79
2023-05-03T04:48:17.547Z,58.80
2023-05-03T04:50:46.607Z,57.79
2023-05-03T04:53:18.461Z,55.91
2023-05-03T04:55:54.262Z,56.81
2023-05-03T04:58:23.647Z,56.61
2023-05-03T05:00:54.002Z,56.54
2023-05-03T05:03:30.955Z,55.83
2023-05-03T05:06:01.212Z,54.87
2023-05-03T05:08:30.863Z,55.83
2023-05-03T05:11:03.402Z,55.46
2023-05-03T05:13:32.997Z,55.39
2023-05-03T05:16:02.118Z,55.54
2023-05-03T05:18:34.429Z,54.57
2023-05-03T05:21:05.676Z,54.96
2023-05-03T05:23:35.890Z,55.03
2023-05-03T05:26:05.129Z,53.79
2023-05-03T05:28:34.859Z,53.78
2023-05-03T05:31:03.943Z,54.06
2023-05-03T05:33:33.364Z,51.94
2023-05-03T05:36:03.072Z,52.64
2023-05-03T05:38:33.321Z,51.75
2023-05-03T05:41:04.584Z,52.15
2023-05-03T05:43:34.901Z,51.59
2023-05-03T05:46:04.537Z,50.94
2023-05-03T05:48:34.662Z,50.69
2023-05-03T05:51:05.839Z,50.12
2023-05-03T05:53:35.086Z,47.96
2023-05-03T05:56:05.864Z,48.10
2023-05-03T05:58:36.989Z,48.36
2023-05-03T06:01:10.413Z,48.23
2023-05-03T06:03:39.016Z,48.65
2023-05-03T06:06:09.816Z,47.75
2023-05-03T06:08:39.170Z,48.52
2023-05-03T06:11:08.290Z,49.01
2023-05-03T06:13:40.444Z,48.90
2023-05-03T06:16:12.246Z,48.61
2023-05-03T06:18:44.780Z,48.28
2023-05-03T06:21:13.768Z,48.05
2023-05-03T06:23:45.226Z,48.24
2023-05-03T06:26:17.143Z,47.79
2023-05-03T06:28:47.422Z,47.58
2023-05-03T06:31:16.945Z,46.86
2023-05-03T06:33:47.279Z,47.09
2023-05-03T06:36:16.593Z,47.16
2023-05-03T06:38:45.535Z,48.26
2023-05-03T06:41:14.326Z,47.59
2023-05-03T06:43:43.628Z,46.93
2023-05-03T06:46:14.441Z,46.56
2023-05-03T06:48:43.789Z,47.05
2023-05-03T06:51:13.009Z,46.40
2023-05-03T06:53:41.899Z,46.18
2023-05-03T06:56:12.043Z,45.78
2023-05-03T06:58:40.898Z,46.74
2023-05-03T07:01:09.757Z,46.40
2023-05-03T07:03:41.626Z,45.98
2023-05-03T07:06:13.613Z,46.06
2023-05-03T07:08:42.990Z,46.08
2023-05-03T07:11:13.108Z,46.04
2023-05-03T07:13:42.452Z,45.92
2023-05-03T07:16:11.361Z,45.94
2023-05-03T07:18:40.458Z,45.77
2023-05-03T07:21:09.580Z,45.98
2023-05-03T07:23:38.860Z,46.24
2023-05-03T07:26:08.346Z,46.29
2023-05-03T07:28:37.284Z,44.84
2023-05-03T07:31:06.515Z,44.97
2023-05-03T07:33:36.908Z,45.90
2023-05-03T07:36:06.722Z,45.79
2023-05-03T07:38:35.630Z,45.11
2023-05-03T07:41:04.552Z,46.03
2023-05-03T07:43:33.540Z,44.90
2023-05-03T07:46:02.870Z,45.57
2023-05-03T07:48:32.147Z,45.29
2023-05-03T07:51:03.650Z,44.98
2023-05-03T07:53:35.144Z,44.84
2023-05-03T07:56:04.571Z,45.20
2023-05-03T07:58:40.016Z,45.29
2023-05-03T08:01:10.919Z,45.91
2023-05-03T08:03:40.678Z,45.68
2023-05-03T08:06:10.232Z,45.09
2023-05-03T08:08:39.420Z,45.20
2023-05-03T08:11:08.379Z,45.80
2023-05-03T08:13:37.232Z,45.48
2023-05-03T08:16:07.099Z,45.07
2023-05-03T08:18:36.122Z,45.02
2023-05-03T08:21:08.410Z,45.46
2023-05-03T08:23:37.324Z,44.98
2023-05-03T08:26:08.878Z,45.06
2023-05-03T08:28:37.961Z,45.80
2023-05-03T08:31:09.843Z,45.92
2023-05-03T08:33:42.301Z,46.02
2023-05-03T08:36:11.487Z,45.59
2023-05-03T08:38:41.246Z,45.65
2023-05-03T08:41:22.118Z,45.02
2023-05-03T08:43:54.174Z,44.69
2023-05-03T08:46:26.708Z,43.65
2023-05-03T08:48:56.612Z,44.34
2023-05-03T08:51:27.313Z,44.68
2023-05-03T08:53:57.017Z,44.25
2023-05-03T08:56:30.422Z,44.23
2023-05-03T08:59:07.273Z,43.99
2023-05-03T09:01:38.765Z,43.82
2023-05-03T09:04:10.198Z,43.16
2023-05-03T09:06:39.435Z,42.70
2023-05-03T09:09:09.191Z,42.37
2023-05-03T09:11:40.009Z,41.77
2023-05-03T09:14:14.291Z,41.46
2023-05-03T09:16:45.170Z,40.48
2023-05-03T09:19:16.250Z,40.50
2023-05-03T09:21:46.930Z,39.99
2023-05-03T09:24:18.800Z,40.60
2023-05-03T09:26:49.688Z,41.15
2023-05-03T09:29:33.776Z,40.95
2023-05-03T09:32:05.060Z,40.44
2023-05-03T09:34:35.117Z,40.26
2023-05-03T09:37:05.063Z,40.41
2023-05-03T09:39:36.310Z,39.85
2023-05-03T09:42:16.131Z,39.55
2023-05-03T09:44:50.852Z,39.00
2023-05-03T09:47:24.056Z,38.93
2023-05-03T09:49:54.057Z,38.89
2023-05-03T09:52:23.077Z,39.08
2023-05-03T09:54:53.854Z,39.09
2023-05-03T09:57:23.382Z,38.69
2023-05-03T09:59:52.866Z,38.82
2023-05-03T10:02:22.444Z,39.10
2023-05-03T10:04:56.427Z,38.83
2023-05-03T10:07:29.641Z,38.88
2023-05-03T10:09:58.849Z,39.14
2023-05-03T10:12:35.880Z,38.89
2023-05-03T10:15:08.822Z,38.43
2023-05-03T10:17:47.330Z,37.98
2023-05-03T10:20:26.785Z,38.05
2023-05-03T10:23:14.918Z,37.66
2023-05-03T10:26:14.366Z,37.76
2023-05-03T10:28:43.725Z,38.13
2023-05-03T10:31:46.466Z,37.88
2023-05-03T10:34:23.203Z,37.86
2023-05-03T10:36:53.800Z,38.55
2023-05-03T10:39:24.289Z,38.20
2023-05-03T10:42:03.128Z,38.54
2023-05-03T10:44:40.647Z,37.58
2023-05-03T10:47:15.045Z,37.14
2023-05-03T10:49:44.427Z,37.39
2023-05-03T10:52:48.024Z,37.30
2023-05-03T10:55:18.766Z,37.71
2023-05-03T10:57:50.852Z,37.06
2023-05-03T11:00:28.987Z,36.88
2023-05-03T11:03:13.356Z,36.46
2023-05-03T11:05:43.043Z,37.35
2023-05-03T11:08:16.660Z,37.22
2023-05-03T11:10:46.019Z,37.23
2023-05-03T11:13:15.548Z,36.75
2023-05-03T11:15:47.015Z,36.26
2023-05-03T11:18:18.575Z,36.05
2023-05-03T11:20:47.989Z,36.99
2023-05-03T11:23:17.088Z,36.83
2023-05-03T11:25:46.016Z,36.78
2023-05-03T11:28:16.581Z,36.99
2023-05-03T11:30:47.650Z,36.89
2023-05-03T11:33:17.365Z,36.83
2023-05-03T11:35:46.868Z,36.88
2023-05-03T11:38:16.169Z,36.33
2023-05-03T11:40:46.417Z,36.99
2023-05-03T11:43:15.434Z,36.51
2023-05-03T11:45:47.064Z,36.39
2023-05-03T11:48:17.690Z,36.83
2023-05-03T11:50:48.429Z,36.85
2023-05-03T11:53:18.608Z,36.91
2023-05-03T11:55:50.196Z,36.90
2023-05-03T11:58:23.272Z,36.97
2023-05-03T12:00:58.078Z,37.33
2023-05-03T12:03:31.813Z,37.50
2023-05-03T12:06:06.480Z,37.23
2023-05-03T12:08:37.929Z,36.42
2023-05-03T12:11:09.894Z,36.14
2023-05-03T12:13:40.755Z,36.97
2023-05-03T12:16:14.293Z,36.90
2023-05-03T12:18:50.115Z,36.78
2023-05-03T12:23:55.868Z,36.49
2023-05-03T12:26:26.949Z,36.86
2023-05-03T12:28:57.227Z,36.46
2023-05-03T12:31:29.194Z,36.34
2023-05-03T12:36:35.078Z,36.50
2023-05-03T12:39:09.779Z,36.42
2023-05-03T12:44:12.091Z,36.55
2023-05-03T12:46:44.754Z,37.02
2023-05-03T12:49:15.040Z,36.67
2023-05-03T12:51:55.432Z,36.09
2023-05-03T12:54:33.980Z,36.37
2023-05-03T12:57:08.528Z,36.35
2023-05-03T12:59:42.559Z,36.03
2023-05-03T13:04:57.787Z,36.22
2023-05-03T13:07:37.533Z,36.47
2023-05-03T13:12:49.294Z,36.22
2023-05-03T13:15:18.486Z,36.18
2023-05-03T13:17:48.526Z,36.04
2023-05-03T13:20:19.787Z,35.92
2023-05-03T13:22:49.807Z,35.65
2023-05-03T13:25:18.983Z,35.83
2023-05-03T13:27:49.723Z,35.06
2023-05-03T13:30:20.960Z,35.76
2023-05-03T13:32:50.184Z,35.96
2023-05-03T13:35:19.717Z,35.28
2023-05-03T13:37:48.597Z,36.18
2023-05-03T13:40:18.378Z,36.05
2023-05-03T13:42:48.140Z,36.47
2023-05-03T13:45:18.300Z,36.31
2023-05-03T13:48:10.177Z,36.09
2023-05-03T13:50:36.431Z,36.06
2023-05-03T13:53:05.528Z,36.84
2023-05-03T13:55:35.060Z,36.24
2023-05-03T13:58:04.451Z,36.60
2023-05-03T14:00:33.474Z,36.19
2023-05-03T14:03:02.799Z,36.94
2023-05-03T14:05:31.946Z,37.08
2023-05-03T14:08:01.599Z,36.33
2023-05-03T14:10:35.241Z,36.51
2023-05-03T14:13:04.676Z,36.43
2023-05-03T14:15:38.045Z,36.76
2023-05-03T14:18:07.533Z,36.64
2023-05-03T14:20:36.953Z,36.61
2023-05-03T14:23:06.230Z,37.00
2023-05-03T14:25:35.864Z,37.25
2023-05-03T14:28:05.143Z,36.56
2023-05-03T14:30:34.362Z,36.67
2023-05-03T14:33:03.942Z,36.74
2023-05-03T14:35:33.038Z,35.93
2023-05-03T14:38:02.274Z,35.97
2023-05-03T14:40:31.975Z,36.34
2023-05-03T14:43:00.891Z,36.25
2023-05-03T14:45:32.431Z,36.16
2023-05-03T14:48:02.281Z,36.34
2023-05-03T14:50:31.923Z,36.17
2023-05-03T14:53:00.915Z,35.22
2023-05-03T14:55:30.960Z,35.72
2023-05-03T14:58:00.005Z,35.63
2023-05-03T15:00:31.459Z,35.63
2023-05-03T15:03:00.625Z,35.85
2023-05-03T15:05:30.798Z,35.61
2023-05-03T15:08:00.202Z,34.82
2023-05-03T15:10:30.234Z,34.52
2023-05-03T15:12:59.678Z,35.04
2023-05-03T15:15:29.784Z,34.40
2023-05-03T15:17:58.832Z,34.84
2023-05-03T15:20:28.147Z,34.51
2023-05-03T15:22:57.541Z,34.24
2023-05-03T15:25:27.062Z,34.04
2023-05-03T15:27:57.386Z,34.84
2023-05-03T15:30:26.597Z,34.61
2023-05-03T15:32:56.429Z,34.33
2023-05-03T15:35:25.830Z,34.27
2023-05-03T15:37:54.901Z,34.68
2023-05-03T15:40:26.754Z,34.75
2023-05-03T15:42:56.979Z,34.46
2023-05-03T15:45:28.496Z,34.77
2023-05-03T15:47:57.426Z,34.13
2023-05-03T15:50:26.539Z,35.00
2023-05-03T15:52:56.443Z,34.28
2023-05-03T15:55:26.647Z,35.21
2023-05-03T15:57:56.773Z,34.66
2023-05-03T16:00:28.197Z,34.69
2023-05-03T16:02:58.797Z,34.19
2023-05-03T16:05:29.444Z,34.17
2023-05-03T16:07:58.839Z,35.21
2023-05-03T16:10:31.065Z,35.08
2023-05-03T16:13:00.266Z,34.97
2023-05-03T16:15:31.613Z,35.17
2023-05-03T16:18:01.001Z,35.35
2023-05-03T16:20:30.839Z,34.69
2023-05-03T16:22:59.852Z,34.61
2023-05-03T16:25:30.977Z,35.19
2023-05-03T16:28:00.230Z,35.18
2023-05-03T16:30:29.978Z,35.38
2023-05-03T16:32:59.105Z,34.86
2023-05-03T16:35:28.863Z,35.13
2023-05-03T16:37:57.677Z,35.19
2023-05-03T16:40:26.606Z,35.34
2023-05-03T16:42:57.659Z,35.10
2023-05-03T16:45:26.618Z,35.34
2023-05-03T16:47:56.378Z,35.17
2023-05-03T16:50:25.925Z,35.30
2023-05-03T16:52:55.754Z,34.59
2023-05-03T16:55:24.759Z,35.82
2023-05-03T16:57:53.684Z,35.63
2023-05-03T17:00:22.947Z,36.02
2023-05-03T17:02:52.404Z,34.98
2023-05-03T17:05:22.289Z,35.65
2023-05-03T17:07:52.068Z,35.37
2023-05-03T17:10:21.098Z,35.83
2023-05-03T17:12:50.478Z,35.13
2023-05-03T17:15:19.705Z,35.25
2023-05-03T17:17:48.919Z,35.85
2023-05-03T17:20:18.334Z,35.30
2023-05-03T17:22:47.384Z,35.22
2023-05-03T17:25:16.792Z,35.31
2023-05-03T17:27:45.832Z,35.19
2023-05-03T17:30:20.363Z,35.78
2023-05-03T17:32:51.237Z,35.98
2023-05-03T17:35:21.514Z,35.83
2023-05-03T17:37:50.792Z,36.39
2023-05-03T17:40:19.962Z,35.10
2023-05-03T17:42:48.948Z,35.38
2023-05-03T17:45:18.972Z,35.08
2023-05-03T17:47:48.563Z,35.30
2023-05-03T17:50:17.644Z,35.55
2023-05-03T17:52:46.564Z,35.17
2023-05-03T17:55:17.931Z,36.53
2023-05-03T17:57:47.592Z,35.86
2023-05-03T18:00:21.168Z,36.58
2023-05-03T18:02:49.726Z,35.99
2023-05-03T18:05:19.505Z,36.19
2023-05-03T18:07:48.924Z,36.00
2023-05-03T18:10:18.159Z,36.81
2023-05-03T18:12:47.186Z,36.40
2023-05-03T18:15:16.622Z,36.69
2023-05-03T18:17:46.215Z,37.25
2023-05-03T18:20:15.910Z,37.02
2023-05-03T18:22:44.695Z,36.68
2023-05-03T18:25:14.127Z,36.94
2023-05-03T18:27:43.656Z,37.00
2023-05-03T18:30:17.723Z,37.55
2023-05-03T18:32:47.230Z,37.33
2023-05-03T18:35:19.562Z,37.53
2023-05-03T18:37:48.905Z,37.81
2023-05-03T18:40:19.743Z,38.32
2023-05-03T18:42:48.973Z,38.10
2023-05-03T18:45:19.120Z,38.25
2023-05-03T18:47:51.877Z,38.67
2023-05-03T18:50:21.945Z,38.52
2023-05-03T18:52:50.973Z,39.14
2023-05-03T18:55:20.088Z,39.32
2023-05-03T18:57:49.437Z,39.33
2023-05-03T19:00:18.984Z,39.36
2023-05-03T19:02:48.368Z,39.84
2023-05-03T19:05:19.684Z,39.90
2023-05-03T19:07:51.794Z,39.90
2023-05-03T19:10:21.286Z,40.35
2023-05-03T19:12:53.415Z,40.54
2023-05-03T19:15:25.448Z,40.94
2023-05-03T19:17:57.424Z,40.89
2023-05-03T19:20:27.388Z,41.34
2023-05-03T19:22:57.370Z,41.21
2023-05-03T19:25:26.296Z,41.73
2023-05-03T19:27:55.426Z,41.76
2023-05-03T19:30:24.650Z,41.79
2023-05-03T19:32:53.827Z,42.32
2023-05-03T19:35:23.202Z,42.25
2023-05-03T19:37:52.341Z,42.49
2023-05-03T19:40:22.429Z,42.34
2023-05-03T19:42:52.044Z,42.78
2023-05-03T19:45:20.980Z,42.88
2023-05-03T19:47:50.368Z,42.97
2023-05-03T19:50:19.624Z,43.50
2023-05-03T19:52:52.762Z,42.99
2023-05-03T19:55:21.886Z,43.72
2023-05-03T19:57:51.046Z,43.59
2023-05-03T20:00:22.864Z,43.69
2023-05-03T20:02:55.240Z,44.35
2023-05-03T20:05:24.505Z,44.17
2023-05-03T20:07:53.766Z,44.06
2023-05-03T20:10:23.013Z,44.29
2023-05-03T20:12:52.573Z,44.80
2023-05-03T20:15:21.365Z,44.58
2023-05-03T20:17:52.911Z,45.07
2023-05-03T20:20:22.347Z,44.99
2023-05-03T20:22:51.545Z,44.87
2023-05-03T20:25:21.289Z,45.47
2023-05-03T20:27:50.504Z,45.33
2023-05-03T20:30:20.091Z,45.29
2023-05-03T20:32:49.451Z,45.41
2023-05-03T20:35:19.629Z,45.84
2023-05-03T20:37:50.948Z,45.65
2023-05-03T20:40:20.235Z,45.80
2023-05-03T20:42:49.742Z,46.40
2023-05-03T20:45:20.469Z,46.57
2023-05-03T20:47:49.889Z,46.51
2023-05-03T20:50:20.772Z,46.14
2023-05-03T20:52:49.974Z,46.07
2023-05-03T20:55:20.253Z,47.02
2023-05-03T20:57:56.309Z,47.05
2023-05-03T21:00:26.897Z,47.31
2023-05-03T21:02:58.723Z,47.26
2023-05-03T21:05:33.578Z,47.43
2023-05-03T21:08:02.821Z,47.75
2023-05-03T21:10:31.959Z,48.25
2023-05-03T21:13:00.907Z,47.89
2023-05-03T21:15:30.264Z,47.94
2023-05-03T21:18:01.326Z,48.18
2023-05-03T21:20:32.978Z,48.12
2023-05-03T21:23:02.092Z,48.15
2023-05-03T21:25:31.498Z,48.91
2023-05-03T21:28:00.436Z,49.31
2023-05-03T21:30:32.135Z,49.04
2023-05-03T21:33:01.027Z,49.29
2023-05-03T21:35:30.692Z,49.14
2023-05-03T21:37:59.944Z,49.23
2023-05-03T21:40:29.441Z,48.80
2023-05-03T21:42:58.434Z,48.92
2023-05-03T21:45:32.155Z,49.59
2023-05-03T21:48:01.610Z,49.46
2023-05-03T21:50:31.454Z,50.15
2023-05-03T21:53:00.481Z,49.98
2023-05-03T21:55:30.986Z,50.69
2023-05-03T21:58:00.548Z,49.73
2023-05-03T22:00:31.284Z,49.73
2023-05-03T22:03:00.712Z,50.45
2023-05-03T22:05:32.588Z,49.81
2023-05-03T22:08:02.130Z,51.01
2023-05-03T22:10:31.405Z,50.21
2023-05-03T22:13:00.331Z,50.71
2023-05-03T22:15:33.186Z,51.39
2023-05-03T22:18:02.459Z,50.46
2023-05-03T22:20:31.941Z,50.70
2023-05-03T22:23:01.174Z,50.75
2023-05-03T22:25:32.267Z,51.62
2023-05-03T22:28:01.729Z,51.33
2023-05-03T22:30:31.237Z,51.07
2023-05-03T22:33:00.462Z,51.21
2023-05-03T22:35:32.021Z,51.71
2023-05-03T22:38:01.715Z,52.32
2023-05-03T22:40:31.056Z,51.92
2023-05-03T22:42:59.982Z,51.82
2023-05-03T22:45:31.543Z,52.26
2023-05-03T22:48:00.853Z,51.99
2023-05-03T22:50:34.015Z,52.18
2023-05-03T22:53:06.001Z,52.19
2023-05-03T22:55:34.878Z,52.64
2023-05-03T22:58:03.934Z,52.38
2023-05-03T23:00:33.108Z,52.57
2023-05-03T23:03:02.172Z,53.46
2023-05-03T23:05:31.921Z,53.29
2023-05-03T23:08:00.816Z,52.97
2023-05-03T23:10:34.071Z,53.79
2023-05-03T23:13:03.082Z,54.12
2023-05-03T23:15:32.821Z,53.83
2023-05-03T23:18:02.044Z,53.57
2023-05-03T23:20:32.004Z,53.77
2023-05-03T23:23:01.507Z,53.69
2023-05-03T23:25:31.706Z,54.49
2023-05-03T23:28:00.582Z,53.98
2023-05-03T23:30:30.734Z,54.19
2023-05-03T23:33:00.186Z,53.95
2023-05-03T23:35:31.811Z,54.56
2023-05-03T23:38:00.807Z,54.13
2023-05-03T23:40:30.850Z,54.14
2023-05-03T23:42:59.765Z,54.34
2023-05-03T23:45:31.641Z,54.87
2023-05-03T23:48:00.650Z,55.37
2023-05-03T23:50:29.816Z,55.63
2023-05-03T23:52:58.808Z,55.39
2023-05-03T23:55:27.729Z,54.58
2023-05-03T23:57:57.570Z,55.23
